createdAt,value
2023-01-12T00:10:13.093Z,70.77
2023-01-12T00:20:40.723Z,70.98
2023-01-12T00:31:10.069Z,71.65
2023-01-12T00:41:57.285Z,72.20
2023-01-12T00:52:30.833Z,72.82
2023-01-12T01:02:59.259Z,73.07
2023-01-12T01:13:26.759Z,73.06
2023-01-12T01:23:54.398Z,73.48
2023-01-12T01:34:23.855Z,73.63
2023-01-12T01:44:57.079Z,73.54
2023-01-12T01:55:27.722Z,73.54
2023-01-12T02:05:56.833Z,73.73
2023-01-12T02:16:27.498Z,73.95
2023-01-12T02:27:18.066Z,74.22
2023-01-12T02:37:54.598Z,74.51
2023-01-12T02:48:28.649Z,74.60
2023-01-12T02:59:00.851Z,74.66
2023-01-12T03:09:32.867Z,74.45
2023-01-12T03:20:04.746Z,74.48
2023-01-12T03:30:36.959Z,74.84
2023-01-12T03:41:11.600Z,74.93
2023-01-12T03:51:43.144Z,75.23
2023-01-12T04:02:11.187Z,75.38
2023-01-12T04:12:38.887Z,75.56
2023-01-12T04:23:07.528Z,75.86
2023-01-12T04:33:33.561Z,76.09
2023-01-12T04:44:01.150Z,75.82
2023-01-12T04:54:28.743Z,75.73
2023-01-12T05:05:05.440Z,75.76
2023-01-12T05:15:33.003Z,75.80
2023-01-12T05:26:02.616Z,76.08
2023-01-12T05:36:30.146Z,76.12
2023-01-12T05:46:57.742Z,76.16
2023-01-12T05:57:25.316Z,76.07
2023-01-12T06:07:52.824Z,76.27
2023-01-12T06:18:22.666Z,76.11
2023-01-12T06:28:50.356Z,75.90
2023-01-12T06:39:18.195Z,75.99
2023-01-12T06:49:45.738Z,76.17
2023-01-12T07:00:15.031Z,76.30
2023-01-12T07:10:42.559Z,76.34
2023-01-12T07:21:13.611Z,76.24
2023-01-12T07:31:41.281Z,75.64
2023-01-12T07:42:24.679Z,75.98
2023-01-12T07:52:52.421Z,75.96
2023-01-12T08:03:19.948Z,76.02
2023-01-12T08:13:47.586Z,76.42
2023-01-12T08:24:18.091Z,76.77
2023-01-12T08:34:48.089Z,77.36
2023-01-12T08:45:15.673Z,77.89
2023-01-12T08:55:43.343Z,78.50
2023-01-12T09:06:16.379Z,78.23
2023-01-12T09:16:44.272Z,77.94
2023-01-12T09:27:13.098Z,78.31
2023-01-12T09:37:43.711Z,77.93
2023-01-12T09:48:14.812Z,77.37
2023-01-12T09:59:03.558Z,76.69
2023-01-12T10:09:32.166Z,76.07
2023-01-12T10:20:02.220Z,75.06
2023-01-12T10:30:33.066Z,73.96
2023-01-12T10:41:17.098Z,72.49
2023-01-12T10:51:53.473Z,71.55
2023-01-12T11:02:22.868Z,70.73
2023-01-12T11:12:57.088Z,70.20
2023-01-12T11:23:30.673Z,69.48
2023-01-12T11:34:04.023Z,68.58
2023-01-12T11:44:40.823Z,67.96
2023-01-12T11:55:13.802Z,67.35
2023-01-12T12:05:49.678Z,66.78
2023-01-12T12:16:29.462Z,66.68
2023-01-12T12:27:05.395Z,66.20
2023-01-12T12:37:48.571Z,65.85
2023-01-12T12:48:21.451Z,65.44
2023-01-12T12:58:50.200Z,65.11
2023-01-12T13:09:37.090Z,64.59
2023-01-12T13:20:44.227Z,64.21
2023-01-12T13:31:33.464Z,64.26
2023-01-12T13:42:18.855Z,64.22
2023-01-12T13:52:57.861Z,64.25
2023-01-12T14:03:46.743Z,64.30
2023-01-12T14:14:44.632Z,64.28
2023-01-12T14:25:21.890Z,64.53
2023-01-12T14:35:52.337Z,64.52
2023-01-12T14:46:28.249Z,64.73
2023-01-12T14:56:59.732Z,65.20
2023-01-12T15:07:31.915Z,65.49
2023-01-12T15:18:31.275Z,65.73
2023-01-12T15:28:58.773Z,66.01
2023-01-12T15:39:26.421Z,66.37
2023-01-12T15:49:54.379Z,66.83
2023-01-12T16:00:25.254Z,67.23
2023-01-12T16:11:13.404Z,67.66
2023-01-12T16:21:41.038Z,67.94
2023-01-12T16:32:08.789Z,68.21
2023-01-12T16:42:36.411Z,68.40
2023-01-12T16:53:03.998Z,68.56
2023-01-12T17:03:31.749Z,68.79
2023-01-12T17:13:59.696Z,68.71
2023-01-12T17:24:28.073Z,68.41
2023-01-12T17:34:55.750Z,68.56
2023-01-12T17:45:23.410Z,68.17
2023-01-12T17:55:52.298Z,68.16
2023-01-12T18:06:26.623Z,68.19
2023-01-12T18:16:54.510Z,68.44
2023-01-12T18:27:22.196Z,68.39
2023-01-12T18:37:49.800Z,68.52
2023-01-12T18:48:24.380Z,68.30
2023-01-12T18:58:52.471Z,68.23
2023-01-12T19:09:38.678Z,68.33
2023-01-12T19:20:08.234Z,68.48
2023-01-12T19:30:36.259Z,68.63
2023-01-12T19:41:11.969Z,68.69
2023-01-12T19:51:40.016Z,68.98
2023-01-12T20:02:07.781Z,69.17
2023-01-12T20:12:35.369Z,69.52
2023-01-12T20:23:03.159Z,69.68
2023-01-12T20:33:30.796Z,69.71
2023-01-12T20:43:58.407Z,69.53
2023-01-12T20:54:25.987Z,69.59
2023-01-12T21:04:53.751Z,69.59
2023-01-12T21:15:21.308Z,69.69
2023-01-12T21:25:50.230Z,69.93
2023-01-12T21:36:19.804Z,70.26
2023-01-12T21:46:49.032Z,70.14
2023-01-12T21:57:16.676Z,70.27
2023-01-12T22:07:44.189Z,70.30
2023-01-12T22:18:11.972Z,70.47
2023-01-12T22:28:41.659Z,70.40
2023-01-12T22:39:09.226Z,70.56
2023-01-12T22:49:36.719Z,70.54
2023-01-12T23:00:04.688Z,70.60
2023-01-12T23:10:32.572Z,70.67
2023-01-12T23:21:11.222Z,70.70
2023-01-12T23:31:37.541Z,70.93
2023-01-12T23:42:05.224Z,71.07
2023-01-12T23:52:33.038Z,71.11
